the time You need

Case Castagna MTB

Cesena, Forlì-Cesena   Italy

domenica 27 settembre 2015

Percorsi

LUNGO - 31.0 Km

 

CORTO - 15.0 Km

Servizi

ADSCOSTPunti KS Ranking

Chip

Circuiti

Romagna Bike Cup

Ente

FCI

CLASSIFICA

LUNGO - 31.0 Km

Pos Atleta Sesso Cat PosC Team Tempo Media RTime
1 FABBRI CHRISTIAN M M3 1 TEAM PASSION FAENTINA 01:27:06.10 21,35 01:27:06.10
2 VALENTINI STEFANO M M2 1 180 BPM 01:27:11.84 21,33 01:27:11.84
3 MAZZONI AGOSTINO M M1 1 180 BPM 01:27:12.10 21,33 01:27:12.10
4 RENZI GIANMARIA M ELMT 1 ASCD VALLE DEL CONCA 01:27:13.10 21,33 01:27:13.10
5 BARBERINI ALESSANDRO M JUN 1 ASD CINGHIALI DI MARE 01:27:13.60 21,33 01:27:13.60
6 GALAMINI MAURIZIO M M5 1 ROMAGNA BIKE GRANDI EVENTI 01:27:20.35 21,30 01:27:20.35
7 MAZZONI ALESSANDRO M M1 2 180 BPM 01:28:40.82 20,98 01:28:40.82
8 ZAMA LORENZO M M1 3 TEAM PASSION FAENTINA 01:28:40.83 20,98 01:28:40.83
9 RAGGI FABIO M M2 2 GOOD BIKE AS RONCOFREDDESE 01:28:40.84 20,98 01:28:40.84
10 PELLEGRINO PARIDE M M3 2 TEAM TORPEDO BIKE 01:28:41.84 20,97 01:28:41.84
11 FIRMIANI MARCO M M2 3 ASD SAMBI TEAM 01:28:46.88 20,95 01:28:46.88
12 RUFFILLI PAOLO M M2 4 SPACCO ASD 01:29:36.84 20,76 01:29:36.84
13 GARELLI DAVIDE M M1 4 SCORPION BIKE MTB 01:29:37.60 20,76 01:29:37.60
14 POGGIALI NICOLA M JUN 2 ASD LE SALINE NATURA E SPORT 01:29:38.10 20,75 01:29:38.10
15 MANIGRASSO GIOVANNI M M4 1 ASD ONLYOFF DUE RUOTE 01:29:38.32 20,75 01:29:38.32
16 CAPPELLI ALEX M ELMT 2 GRUPPO TNT 01:29:53.88 20,69 01:29:53.88
17 COLLINI FRANCESCO M ELMT 3 GS BULGARNO´ BIKE 2008 01:29:59.13 20,67 01:29:59.13
18 PARINI MARCELLO M M4 2 VITAMINA TEAM 01:30:46.10 20,49 01:30:46.10
19 FERRARI ENRICO M M1 5 SPACCO ASD 01:30:52.84 20,47 01:30:52.84
20 BIANCHI LUCA M M1 6 ASD TEAM BIKE VALCONCA 01:30:55.35 20,46 01:30:55.35
21 CEREDI DANIELE M M2 5 TEAM ESSERE E MTBICIO 01:31:02.60 20,43 01:31:02.60
22 FOSCHI CRISTIAN M M3 3 ROMAGNA BIKE GRANDI EVENTI 01:31:04.84 20,42 01:31:04.84
23 ACCORDI LUCA M ELMT 4 OSTERIA BIKE ASD 01:31:10.13 20,40 01:31:10.13
24 RIGHI GIORGIO M M1 7 TEAM ESSERE E MTBICIO 01:31:10.14 20,40 01:31:10.14
25 GUGLIELMI MATTEO M M3 4 TEAM BIKE COCIF.COM ASD 01:31:40.33 20,29 01:31:40.33
26 FIORINI FABIO M M4 3 ASD TEAM ENDURANCE 01:32:55.61 20,02 01:32:55.61
27 STAVOLA LUCA M M1 8 SCORPION BIKE MTB 01:32:57.63 20,01 01:32:57.63
28 CALISE MARCO M M6 1 ASCD VALLE DEL CONCA 01:32:59.88 20,00 01:32:59.88
29 BUCCI EMANUELE M M1 9 ASD TEAM BIKE VALCONCA 01:33:00.36 20,00 01:33:00.36
30 BUSSI SIMONE M M2 6 VENTURI ADVENTURE TEAM 01:33:02.61 19,99 01:33:02.61
31 GIOVANNINI FABIO M M4 4 SAN MARINO MTB TEAM 01:33:04.13 19,99 01:33:04.13
32 FANTINI FABIO M M2 7 ASCD VALLE DEL CONCA 01:33:04.85 19,99 01:33:04.85
33 TONINI MARCO M 2S 1 BENESSERE E SPORT SSD A RL 01:33:19.11 19,93 01:33:19.11
34 IAMMARINO GIANLUCA M M3 5 TEAM ESSERE E MTBICIO 01:33:30.86 19,89 01:33:30.86
35 FABBRI CLAUDIO M M1 10 TEAM PASSION FAENTINA 01:33:33.61 19,88 01:33:33.61
36 CAVICCHI CRISTIAN M 2S 2 POL. YOUNG LINE BIKE INNOVATION 01:33:52.63 19,82 01:33:52.63
37 RAGGINI ROBERTO M M5 2 SCORPION BIKE MTB 01:33:55.11 19,80 01:33:55.11
38 ROSSI ANDREA M M4 5 ROMAGNA BIKE GRANDI EVENTI 01:36:07.85 19,35 01:36:07.85
39 GUGLIELMI THOMAS M M2 8 SPACCO ASD 01:36:08.11 19,35 01:36:08.11
40 ORAZI MASSIMILIANO M M4 6 TEAM PASSION FAENTINA 01:36:32.33 19,27 01:36:32.33
41 PALANCA GIANLUCA M M4 7 SPACCO ASD 01:36:50.85 19,21 01:36:50.85
42 SANTI DANILO M 2S 3 TEAM BIKE 2000 ASD 01:36:57.89 19,19 01:36:57.89
43 CASTROGIOVANNI ANDREA M M1 11 PEDALE CESENATE CICLI NERI 01:38:12.90 18,94 01:38:12.90
44 QUARANTINI DAVIDE M M3 6 ASD IMOLA BIKE 01:38:14.61 18,93 01:38:14.61
45 PRUNI PAOLO M M4 8 KTM FORTI E LIBERI 01:38:43.37 18,84 01:38:43.37
46 ZAFFERANI MICHELE M M2 9 SAN MARINO MTB TEAM 01:38:45.86 18,84 01:38:45.86
47 MAMBELLI MARINO M M6 2 ASD TEAM COMACO 01:38:46.86 18,83 01:38:46.86
48 FARINA JURI M M4 9 ASD IMOLA BIKE 01:38:47.62 18,83 01:38:47.62
49 BONAVITA ILARIO M M5 3 SPACCO ASD 01:38:47.62 18,83 01:38:47.62
50 AGNOLETTI PIERPAOLO M M6 3 ASCD VALLE DEL CONCA 01:38:49.12 18,82 01:38:49.12
51 BALDAZZI ANDREA M M2 10 POL. YOUNG LINE BIKE INNOVATION 01:38:57.62 18,80 01:38:57.62
52 SASDELLI MICHELE M 2S 4 BAMBANA BIKE 01:39:14.37 18,74 01:39:14.37
53 STROCCHI MATTIA M M1 12 BAD SKULL ASD 01:39:19.62 18,73 01:39:19.62
54 MONTANARI MAURO M 2S 5 TEAM PASSION FAENTINA 01:39:37.12 18,67 01:39:37.12
55 MEINI ALESSANDRO M ELMT 5 ASCD VALLE DEL CONCA 01:39:46.86 18,64 01:39:46.86
56 NARDI MASSIMO M 2S 6 180 BPM 01:39:49.86 18,63 01:39:49.86
57 LAMI FLAVIO M M5 4 SCORPION BIKE MTB 01:39:54.34 18,62 01:39:54.34
58 MEDRI FRANCESCO M M5 5 ROMAGNA BIKE GRANDI EVENTI 01:40:18.86 18,54 01:40:18.86
59 FABBRI FABIO M M5 6 180 BPM 01:40:26.12 18,52 01:40:26.12
60 DELLABIANCIA MATTEO M ELMT 6 TEAM CINGOLANI - SPECIALIZED 01:40:31.37 18,50 01:40:31.37
61 MAURO EMANUELE M ELMT 7 ASD TOSCO-ROMAGNOLA 01:40:31.65 18,50 01:40:31.65
62 FANTINI MASSIMILIANO M M4 10 TEAM K-ONE ASD 01:40:32.12 18,50 01:40:32.12
63 ANCARANI ALESSIO M ELMT 8 TEAM PASSION FAENTINA 01:40:33.15 18,50 01:40:33.15
64 VALLICELLI MIRKO M M2 11 TEAM PASSION FAENTINA 01:40:34.15 18,50 01:40:34.15
65 BABINI GIOVANNI M M6 4 SC VELOCIRAPTOR 01:40:34.20 18,50 01:40:34.20
66 LOMBARDI NICOLO´ M ELMT 9 180 BPM 01:40:37.86 18,49 01:40:37.86
67 BALDAZZI DAVIDE M 2S 7 ASCD VALLE DEL CONCA 01:40:55.34 18,43 01:40:55.34
68 CONFICONI SAMUELE M M3 7 ASD TEAM ENDURANCE 01:41:08.34 18,39 01:41:08.34
69 ALTINI ANDREA M M2 12 KTM FORTI E LIBERI 01:41:09.62 18,39 01:41:09.62
70 SAVINO CARMINE M M4 11 TEAM PASSION FAENTINA 01:41:46.86 18,28 01:41:46.86
71 CAMPANINI GIANNI M M5 7 PEDALE CESENATE CICLI NERI 01:41:49.12 18,27 01:41:49.12
72 DALL´OSSO CARLO M 2S 9 POL. YOUNG LINE BIKE INNOVATION 01:42:18.62 18,18 01:42:18.62
73 PIOGGIA LUCA M 2S 8 POL. YOUNG LINE BIKE INNOVATION 01:42:18.62 18,18 01:42:18.62
74 MAGRINI STEFANO M M6 5 SC VELOCIRAPTOR 01:42:19.91 18,18 01:42:19.91
75 GOBBI STEFANO M M1 13 ASCD VALLE DEL CONCA 01:42:22.16 18,17 01:42:22.16
76 SOVERA ALESSIO M M3 8 SALIMBICI BIKE TEAM RUOTE 01:42:42.62 18,11 01:42:42.62
77 MENGOZZI ANDREA M JUN 3 ASD LE SALINE NATURA E SPORT 01:42:43.12 18,11 01:42:43.12
78 GAVIANI FILIPPO M M1 14 BAD SKULL ASD 01:42:43.62 18,11 01:42:43.62
79 CICOGNANI FABRIZIO M M1 15 180 BPM 01:42:45.62 18,10 01:42:45.62
80 MARANI RICCARDO M M2 13 TEAM PASSION FAENTINA 01:42:48.16 18,09 01:42:48.16
81 BALDO RAFFAELE M M4 12 TEAM PASSION FAENTINA 01:42:48.62 18,09 01:42:48.62
82 CASTELLUCCI STEFANO M 2S 10 180 BPM 01:42:48.73 18,09 01:42:48.73
83 BECCI MORENO M M6 6 GRUPPO TNT 01:42:51.62 18,08 01:42:51.62
84 ALESSANDRINI GUGLIELMO M M5 8 ASD ECOLOGY TEAM 01:42:53.35 18,08 01:42:53.35
85 CECCHINI ALFIO M M5 9 ASD TEAM BIKE VALCONCA 01:42:55.86 18,07 01:42:55.86
86 MAMBELLI MARCO M M2 14 ASD OTW RAVENNA 01:42:57.12 18,07 01:42:57.12
87 CAVIOLI DANIELE M M1 16 ASD LE SALINE NATURA E SPORT 01:43:53.62 17,90 01:43:53.62
88 SAPIGNI ALESSANDRO M M3 9 SCORPION BIKE MTB 01:44:01.16 17,88 01:44:01.16
89 MINIELLO LEO M M1 17 TEAM BIKE COCIF.COM ASD 01:44:01.41 17,88 01:44:01.41
90 COZZOLINO CLAUDIO M M3 10 ASD TEAM COMACO 01:44:09.91 17,86 01:44:09.91
91 D´ANGELO SIMONE M ELMT 10 ASCD VALLE DEL CONCA 01:44:10.35 17,86 01:44:10.35
92 GHETTI WILMER M M4 13 GS TORPADO SURFING SHOP SPORT PROMOTION 01:44:10.66 17,86 01:44:10.66
93 COSTABILE CLAUDIO M M2 15 BORELLO CYCLING TEAM 01:44:13.62 17,85 01:44:13.62
94 MAGALOTTI DAVIDE M 2S 11 SPACCO ASD 01:44:13.63 17,85 01:44:13.63
95 CAPECE MATTIA M M1 18 KTM FORTI E LIBERI 01:44:14.13 17,84 01:44:14.13
96 MIGANI DENIS M 2S 12 ASCD VALLE DEL CONCA 01:44:17.16 17,84 01:44:17.16
97 SALOMONI FILIPPO M ELMT 11 ASD CESENA BIKE 01:44:22.36 17,82 01:44:22.36
98 PEDROSI CRISTIAN M 2S 13 ASD SUPERTEAM VILLA VERUCCHIO 01:44:37.88 17,78 01:44:37.88
99 MASSARI MATTIA M ELMT 12 ASD MEDINOX 01:45:07.36 17,69 01:45:07.36
100 FABBRI DOMENICO M M5 10 ROMAGNA BIKE GRANDI EVENTI 01:45:58.36 17,55 01:45:58.36
101 PRATELLI DAVIDE M 2S 14 ASCD VALLE DEL CONCA 01:45:59.13 17,55 01:45:59.13
102 BRIGLIADORI SANDRO M M6 7 SCORPION BIKE MTB 01:46:10.63 17,52 01:46:10.63
103 TAMPELLINI MATTEO M 2S 15 180 BPM 01:46:11.13 17,52 01:46:11.13
104 BORDONI PIETRO M M5 11 ASD MEDINOX 01:46:13.88 17,51 01:46:13.88
105 GUCCINI FABIO M M1 19 TEAM K-ONE ASD 01:46:59.13 17,39 01:46:59.13
106 CHIARADIA TULLIO M M2 16 180 BPM 01:47:06.88 17,37 01:47:06.88
107 ROSETTI FILIPPO M ELMT 13 180 BPM 01:47:06.88 17,37 01:47:06.88
108 NERI FABIO M M5 12 ASD TOSCO-ROMAGNOLA 01:47:13.63 17,35 01:47:13.63
109 BANDINI ALEXANDER M M3 11 VITAMINA TEAM 01:47:15.63 17,34 01:47:15.63
110 EUSEBI LORENZO M JUN 4 GS GEKO BIKE ASD 01:47:16.41 17,34 01:47:16.41
111 RUGGIERO BRUNO M M5 13 TEAM K-ONE ASD 01:47:22.38 17,32 01:47:22.38
112 RINALDI ANDREA M ELMT 14 GRUPPO TNT 01:47:22.88 17,32 01:47:22.88
113 RAVAIOLI MARCO M ELMT 15 GRUPPO TNT 01:47:23.16 17,32 01:47:23.16
114 AGNOLETTI MARIO M M3 12 UISP RAVENNA 01:47:23.18 17,32 01:47:23.18
115 PIANOSI MARCELLO M 2S 16 ASD CESENA BIKE 01:47:23.38 17,32 01:47:23.38
116 VENTURINI ANDREA M M1 20 ASD CESENA BIKE 01:47:24.16 17,32 01:47:24.16
117 PERINI DAVID M M4 14 ASD LE SALINE NATURA E SPORT 01:47:31.88 17,30 01:47:31.88
118 GASTALDI ELISA F MW1 1 TEAM PASSION FAENTINA 01:47:35.13 17,29 01:47:35.13
119 VALBONESI EMANUELE M M2 17 180 BPM 01:49:03.64 17,06 01:49:03.64
120 SARTI DAVIDE M 2S 17 ASD TEAM BIKE VALCONCA 01:49:09.92 17,04 01:49:09.92
121 FERRIOLI DEVIS M 2S 18 TEAM PASSION FAENTINA 01:49:10.36 17,04 01:49:10.36
122 MAZZINI MARCO M M3 13 BAMBANA BIKE 01:49:22.67 17,01 01:49:22.67
123 MONDUZZI MORENO M M5 14 ASD IMOLA BIKE 01:49:27.14 16,99 01:49:27.14
124 BRIGANTI GIANNI M M5 15 180 BPM 01:49:40.64 16,96 01:49:40.64
125 DE SIMONE ALESSANDRO M M1 21 GOOD BIKE AS RONCOFREDDESE 01:49:40.95 16,96 01:49:40.95
126 MARONI MICHELE M M2 18 GOOD BIKE AS RONCOFREDDESE 01:49:41.17 16,96 01:49:41.17
127 GREGORI ANTONIO M M6 8 VENTURI ADVENTURE TEAM 01:49:43.88 16,95 01:49:43.88
128 MANTOVANI LUCA M M5 16 BAMBANA BIKE 01:49:48.88 16,94 01:49:48.88
129 FILIPPI GIACOMO M ELMT 16 180 BPM 01:49:55.64 16,92 01:49:55.64
130 SPINOSI GIANLUCA M M5 17 MTB CESENA 01:49:56.39 16,92 01:49:56.39
131 GAMBELLA DAVID M M4 15 CYCLING TEAM RAGAMON 01:50:18.65 16,86 01:50:18.65
132 AMADUCCI ROBERTO M M6 9 180 BPM 01:50:19.36 16,86 01:50:19.36
133 GIAMPRETI PAOLA F MW1 2 GRUPPO TNT 01:50:58.17 16,76 01:50:58.17
134 ROVINELLI RICCARDO M 2S 19 SPACCO ASD 01:50:58.65 16,76 01:50:58.65
135 BARTOLINI VALERIA F MW2 1 TEAM TORPEDO BIKE 01:51:00.15 16,76 01:51:00.15
136 SELVA FEDERICO M 2S 20 SAN MARINO MTB TEAM 01:51:00.40 16,76 01:51:00.40
137 PARA MASSIMO M M5 18 COMERO BIKE 01:51:00.89 16,76 01:51:00.89
138 PIRACCINI GIANNI M M1 22 MTB CESENA 01:51:33.36 16,67 01:51:33.36
139 GORRIERI RICCARDO M M4 16 ASD VALMARACING TEAM 01:51:35.42 16,67 01:51:35.42
140 MORRI MIRCO M M4 17 ASD LE SALINE NATURA E SPORT 01:51:53.65 16,62 01:51:53.65
141 BARTOLONI GIANNI M M5 19 SAN MARINO MTB TEAM 01:52:08.18 16,59 01:52:08.18
142 PIOLANTI PIER DOMENICO M 2S 21 180 BPM 01:53:04.65 16,45 01:53:04.65
143 LUSA MORGAN M M1 23 MTB CESENA 01:53:04.89 16,45 01:53:04.89
144 BARAVELLI IVAN M ELMT 17 GRUPPO TNT 01:53:05.68 16,45 01:53:05.68
145 BISSIONI LORENZO M M6 10 PEDALE CESENATE CICLI NERI 01:53:33.40 16,38 01:53:33.40
146 CAPPELLINI MATTEO M M3 14 180 BPM 01:53:36.65 16,37 01:53:36.65
147 MENGOZZI CARLO M M4 18 COMERO BIKE 01:53:38.15 16,37 01:53:38.15
148 ACCIAI MAURIZIO M M6 11 GRUPPO TNT 01:53:45.40 16,35 01:53:45.40
149 BAZZOCCHI MARCO M 2S 22 ASD TEAM COMACO 01:54:01.89 16,31 01:54:01.89
150 SANTINI ALESSANDRO M M2 19 GS BULGARNO´ BIKE 2008 01:54:04.89 16,31 01:54:04.89
151 LUPINI DAVIDE M M1 24 GOOD BIKE AS RONCOFREDDESE 01:54:08.15 16,30 01:54:08.15
152 FERRINI MATTIA M JUN 5 SPACCO ASD 01:54:30.68 16,24 01:54:30.68
153 FAGGIOLINI CRISTIAN M 2S 23 AS TARTANA BIKE 01:54:32.40 16,24 01:54:32.40
154 CIGNANI ROMANO M 2S 24 180 BPM 01:54:38.65 16,23 01:54:38.65
155 BELEFFI DANIELE M M2 20 ASD MEDINOX 01:54:42.37 16,22 01:54:42.37
156 LUCCHI MASSIMO M M5 20 GS TORPADO SURFING SHOP SPORT PROMOTION 01:54:43.40 16,21 01:54:43.40
157 TAROZZI ROBERTO M 2S 25 TEAM PASSION FAENTINA 01:55:04.89 16,16 01:55:04.89
158 BISERNA BRUNO M M4 19 INDIVIDUALE 01:55:12.15 16,15 01:55:12.15
159 MORIGI MATTEO M M1 25 TEAM TORPEDO BIKE 01:55:13.19 16,14 01:55:13.19
160 BUDELACCI MIRCO M 2S 26 GS TORPADO SURFING SHOP SPORT PROMOTION 01:57:45.90 15,80 01:57:45.90
161 TERZIARI ALBERTO M M5 21 POL. YOUNG LINE BIKE INNOVATION 01:58:32.94 15,69 01:58:32.94
162 RIGHETTI PIETRO M M6 12 BAMBANA BIKE 01:58:35.41 15,69 01:58:35.41
163 ARLOTTI MAURIZIO M M5 22 TEAM TORPEDO BIKE 01:58:39.41 15,68 01:58:39.41
164 MORDENTI FERNANDO M M6 13 ASD TEAM COMACO 01:59:00.94 15,63 01:59:00.94
165 COLOMBO ROBERTO M M4 20 ROMAGNA BIKE GRANDI EVENTI 02:00:04.16 15,49 02:00:04.16
166 CIMINI MARCO M M2 21 ASD TEAM BIKE VALCONCA 02:00:13.90 15,47 02:00:13.90
167 SOVERINI ALBERTO M M2 22 BUNNY HOP CYCLING TEAM ASD 02:00:34.90 15,43 02:00:34.90
168 FERRI MAURO M M7 1 BAMBANA BIKE 02:00:40.19 15,41 02:00:40.19
169 BELLAGAMBA MATTIA M 2S 27 GS TORPADO SURFING SHOP SPORT PROMOTION 02:02:54.17 15,13 02:02:54.17
170 GOLFERA FABRIZIO M M6 14 TEAM PASSION FAENTINA 02:02:54.67 15,13 02:02:54.67
171 COLLINI LUCA M ELMT 18 GS BULGARNO´ BIKE 2008 02:03:01.42 15,12 02:03:01.42
172 FIORAVANTI DANIELE M M5 23 FREE BIKE CESENA 02:03:26.20 15,07 02:03:26.20
173 MONTANARI OMAR M M1 26 MTB CESENA 02:03:27.42 15,07 02:03:27.42
174 FIAMMENGHI FLAMIGNI ALBERTO M M3 15 AS TARTANA BIKE 02:03:59.17 15,00 02:03:59.17
175 SAMPAOLI GIMMI M M2 23 COMERO BIKE 02:05:30.91 14,82 02:05:30.91
176 DE BONIS ENEA M M3 16 GS TORPADO SURFING SHOP SPORT PROMOTION 02:06:42.17 14,68 02:06:42.17
177 GRANDI ENRICO M 2S 28 TEAM MONDOBICI TECNOPLAST 02:06:47.96 14,67 02:06:47.96
178 CAPPELLI LUCA M 2S 29 PEDALE CESENATE CICLI NERI 02:06:58.67 14,65 02:06:58.67
179 GARAVINI DAVIDE M M5 24 180 BPM 02:08:52.72 14,43 02:08:52.72
180 MANCINI GABRIELE M M2 24 COMERO BIKE 02:10:14.68 14,28 02:10:14.68
181 CHIOCCIOLINI DANIELA F MW2 2 180 BPM 02:10:49.18 14,22 02:10:49.18
182 GARATTONI LUCA M M3 17 ASD MEDINOX 02:11:50.41 14,11 02:11:50.41
183 BALDININI DANIELA F MW2 3 ASD MEDINOX 02:11:53.18 14,10 02:11:53.18
184 FABIANI FABIO M 2S 30 SPACCO ASD 02:11:54.41 14,10 02:11:54.41
185 TOSI WIDMER M M7 2 SPACCO ASD 02:13:03.47 13,98 02:13:03.47
186 BALDISSERRI PIETRO M M6 15 GS TORPADO SURFING SHOP SPORT PROMOTION 02:15:39.19 13,71 02:15:39.19
187 ZANCHINI LORIS M M5 25 ASD TEAM COMACO 02:16:15.73 13,65 02:16:15.73
188 FAGGIOLI ANDREA M M5 26 ASD TEAM COMACO 02:16:15.86 13,65 02:16:15.86
189 CHILLO TANIA F MW2 4 ASD ONLYOFF DUE RUOTE 02:16:36.48 13,62 02:16:36.48
190 GAGLIANO CLARA F MW2 5 BAMBANA BIKE 02:17:00.19 13,58 02:17:00.19
191 COTTIGNOLA GIUSEPPE M M5 27 ASD TEAM COMACO 02:17:56.73 13,48 02:17:56.73
192 CORTINI DONATELLA F MW2 6 TEAM PASSION FAENTINA 02:18:21.44 13,44 02:18:21.44
193 CASALBONI ALESSANDRO M ELMT 19 TEAM TORPEDO BIKE 02:21:02.20 13,19 02:21:02.20
194 GUCCINI DOMENICO M M7 3 TEAM K-ONE ASD 02:25:21.45 12,80 02:25:21.45

CORTO - 15.0 Km

Pos Atleta Sesso Cat PosC Team Tempo Media RTime
1 TOZZI MATTIA M ALL 1 ASD LE SALINE NATURA E SPORT 01:01:43.84 14,58 01:01:43.84
2 PARINI DANIELE M ES 1 180 BPM 01:03:16.85 14,23 01:03:16.85
3 BANDINI ALESSANDRO M ALL 2 180 BPM 01:03:17.33 14,22 01:03:17.33
4 COSTA LUCA M ALL 3 ASD SBUBBIKERS 01:03:35.11 14,15 01:03:35.11
5 SASSATELLI TOMMASO M ES 2 ASD LEONARDI RACING TEAM 01:04:59.33 13,85 01:04:59.33
6 PRUCCOLI ANDREA M ALL 4 ASD LE SALINE NATURA E SPORT 01:09:18.12 12,99 01:09:18.12
7 SISTRI PIETRO M ES 3 ASD LE SALINE NATURA E SPORT 01:13:34.66 12,23 01:13:34.66
8 MORRI ALESSIA F ALL 5 ASD LE SALINE NATURA E SPORT 01:15:20.63 11,95 01:15:20.63
9 BONCI MARIO M ES 4 ASD LE SALINE NATURA E SPORT 01:22:04.43 10,97 01:22:04.43